Terminal Aerodrome Forecast
Issued by NWS

Home | Current Version | Previous Version | Text Only | Print | Product List | Glossary On
Versions: 1 2 3 4 5 6 7 8 9 10 11 12 13 14 15 16 17
000
FTUS42 KTBW 280108 AAA
TAFLAL
TAF AMD
KLAL 280108Z 2801/2824 VRB03KT P6SM FEW030 FEW250
      TEMPO 2801/2803 4SM -TSRA BKN035CB
     FM281400 24005KT P6SM SCT025 SCT250
     FM281700 26006KT P6SM VCTS SCT045CB BKN150=

USA.gov is the U.S. government's official web portal to all federal, state and local government web resources and services.